Helmsdale, United Kingdom
Current Conditions -  °F | °C
As of 3:50 AM on Thursday 29 Jan 2015 (Local Time) from EGQS Reporting Station
Broken Clouds Broken Clouds  
Wind Chill: 23°   Ceiling: 4500
Heat Index: 32°   Visibility: 6mi
Dew Point: 28°   Wind: 13mph
Humidity: 87%   Direction: 240°WSW
Pressure: 28.79"   Gusts: NA
Location:  58.12°N, 3.66°W
Report Text: EGQS 290350Z 24011KT 9999 BKN045 00/M02 Q0975 BLU
Loading
Personal Weather Stations






























Interactive Weather Map New forecast layout! Learn more

10-Day Weather Forecast

Advertisements
Track Severe Weather on mobile